Wednesday, July 23, 2014
17:59 UTC
  |  Log In   |  Register Free
Airport Search:

Lenawee County Airport
(KADG)

Lenawee County Airport Diagram
No Airport Diagram Available

FAA data valid effective May 29, 2014 until July 24, 2014 (unless otherwise noted).

 
 
 
 
 
 
 
 
 
 
 
 
 
 

Current Aviation Weather for Lenawee County Airport (KADG)

The most recent METAR observation for KADG was updated at: 1553 UTC
METAR Summary (Translated METAR)
KADG
231553Z AUTO 36009KT 10SM OVC018 21/16 A3005 RMK AO2 SLP174 T02060156 TSNO
KDUH
(20.4 nm SE from KADG)
231635Z AUTO 33006KT 10SM OVC020 21/16 A3005 RMK AO2
TAF Summary (Translated TAF)
KTOL
(20.7 nm SE from KADG)
231358Z 2314/2412 36011KT P6SM OVC018 FM231900 01011KT P6SM BKN035 FM232300 01010KT P6SM SCT040 FM240300 01006KT P6SM SKC
  Airport Weather Conditions for KADG

 Current Weather at ADG
71° F
Overcast
North winds at 10.4 mph
ADG NOAA Radar

Pressure: 30.07 in
Humidity: 68%
Wind: North at 10.4 MPH (9 KT)
Dew Point: 60.1°F
Visibility: 10.00 mi


Airport Weather Forecast for KADG

Translated METAR and TAF for KADG
Translated METAR for KADG (1752 UTC 23 July 2014)
found at http://aviationweather.gov/adds/metars/
 
METAR text: KADG 231653Z AUTO 35009KT 10SM OVC024 22/16 A3007 RMK AO2 SLP181 T02170156 TSNO
Conditions at: KADG (ADRIAN , MI, US) observed 1653 UTC 23 July 2014
Temperature: 21.7°C (71°F)
Dewpoint: 15.6°C (60°F) [RH = 68%]
Pressure (altimeter): 30.07 inches Hg (1018.4 mb)
[Sea-level pressure: 1018.1 mb]
Winds: from the N (350 degrees) at 10 MPH (9 knots; 4.7 m/s)
Visibility: 10 or more miles (16+ km)
Ceiling: 2400 feet AGL
Clouds: overcast cloud deck at 2400 feet AGL
Weather: automated observation with no human augmentation;
there may or may not be significant weather present at this time
Translated TAF for KADG

There is no translated TAF available for this airport

Find All Airport Services Find A Hotel Find A Rental Car Find A Golf Course Find A Restaurant $100 Hamburger



FBO's on the Field
FBO Company Facility Photos Services Transportation Aviation Fuel Prices: Prices include tax
Catering Weather Repair Courtesy Rental Type 100LL JetA JetA+ MOGAS 8087
 
Lenawee County Airport

This FBO has not yet been rated
FS:Avfuel
Last Updated: Jun-26
Login to update fuel prices
SS:
Contact Lenawee County AirportMore FBO Information
 
Add another FBO Facility Photos Catering Weather Repair Courtesy Rental Type 100LL JetA JetA+ MOGAS 8087
Services Transportation Aviation Fuel Prices: Prices include tax


GlobalAir.com Airport Resource Center model-print
model-print
model-print
model-print